WWW23 KLAS-KXTA
Flight info
| Callsign | WWW23 |
|---|---|
| Flight time | 0h 23m |
| Altitude | 16000 |
| Route | LOHLA3 JAYSN SMKEE |
| Aircraft | B736/M-SDE2E3FGHIRWXY/LB1 |
Departure
| Time | 2026-05-04 03:36 |
|---|---|
| Airport | Harry Reid International Airport (KLAS) |
Arrival
| Time | 2026-05-04 04:00 |
|---|---|
| Airport | Homey (Area 51) Airport (KXTA) |
| Time | Latitude | Longitude | Altitude | Speed | Heading |
|---|---|---|---|---|---|
| 2026-05-04 03:10 | 36.09173 | -115.16529 | 2146 ft | 0 kts | 76° |
| 2026-05-04 03:25 | 36.09174 | -115.16528 | 2146 ft | 0 kts | 76° |
| 2026-05-04 03:25 | 36.09173 | -115.16527 | 2145 ft | 0 kts | 83° |
| 2026-05-04 03:30 | 36.09173 | -115.16525 | 2145 ft | 0 kts | 85° |
| 2026-05-04 03:30 | 36.09173 | -115.16516 | 2145 ft | 3 kts | 95° |
| 2026-05-04 03:30 | 36.09148 | -115.16484 | 2143 ft | 7 kts | 147° |
| 2026-05-04 03:30 | 36.09126 | -115.16418 | 2138 ft | 11 kts | 98° |
| 2026-05-04 03:31 | 36.09172 | -115.16339 | 2133 ft | 14 kts | 23° |
| 2026-05-04 03:31 | 36.09260 | -115.16289 | 2128 ft | 14 kts | 24° |
| 2026-05-04 03:31 | 36.09347 | -115.16238 | 2126 ft | 14 kts | 24° |
| 2026-05-04 03:31 | 36.09432 | -115.16190 | 2123 ft | 14 kts | 25° |
| 2026-05-04 03:32 | 36.09533 | -115.16133 | 2120 ft | 18 kts | 25° |
| 2026-05-04 03:32 | 36.09659 | -115.16060 | 2116 ft | 22 kts | 25° |
| 2026-05-04 03:32 | 36.09814 | -115.15972 | 2112 ft | 26 kts | 25° |
| 2026-05-04 03:32 | 36.09953 | -115.15863 | 2107 ft | 18 kts | 65° |
| 2026-05-04 03:33 | 36.09982 | -115.15763 | 2103 ft | 0 kts | 79° |
| 2026-05-04 03:33 | 36.09982 | -115.15755 | 2103 ft | 3 kts | 86° |
| 2026-05-04 03:33 | 36.09974 | -115.15709 | 2102 ft | 9 kts | 111° |
| 2026-05-04 03:33 | 36.09927 | -115.15667 | 2100 ft | 8 kts | 201° |
| 2026-05-04 03:34 | 36.09899 | -115.15682 | 2100 ft | 0 kts | 204° |
| 2026-05-04 03:35 | 36.09896 | -115.15683 | 2101 ft | 3 kts | 205° |
| 2026-05-04 03:35 | 36.09723 | -115.15783 | 2103 ft | 58 kts | 205° |
| 2026-05-04 03:35 | 36.09191 | -115.16089 | 2116 ft | 109 kts | 205° |
| 2026-05-04 03:35 | 36.08680 | -115.16380 | 2137 ft | 134 kts | 205° |
| 2026-05-04 03:36 | 36.07812 | -115.16902 | 2457 ft | 141 kts | 207° |
| 2026-05-04 03:36 | 36.06616 | -115.17682 | 2996 ft | 149 kts | 216° |
| 2026-05-04 03:36 | 36.06068 | -115.18662 | 3528 ft | 141 kts | 261° |
| 2026-05-04 03:36 | 36.06158 | -115.19475 | 3811 ft | 146 kts | 278° |
| 2026-05-04 03:37 | 36.06424 | -115.20786 | 4166 ft | 169 kts | 278° |
| 2026-05-04 03:37 | 36.06687 | -115.22316 | 4446 ft | 195 kts | 276° |
| 2026-05-04 03:37 | 36.06966 | -115.24062 | 4656 ft | 220 kts | 277° |
| 2026-05-04 03:37 | 36.07321 | -115.26008 | 4848 ft | 250 kts | 286° |
| 2026-05-04 03:38 | 36.08337 | -115.27851 | 5377 ft | 272 kts | 314° |
| 2026-05-04 03:38 | 36.10054 | -115.28966 | 6059 ft | 290 kts | 342° |
| 2026-05-04 03:38 | 36.12028 | -115.29481 | 6958 ft | 291 kts | 346° |
| 2026-05-04 03:38 | 36.14040 | -115.29994 | 7731 ft | 299 kts | 345° |
| 2026-05-04 03:39 | 36.16081 | -115.30576 | 8591 ft | 303 kts | 339° |
| 2026-05-04 03:39 | 36.17843 | -115.31939 | 9525 ft | 300 kts | 310° |
| 2026-05-04 03:39 | 36.18965 | -115.34081 | 10401 ft | 299 kts | 290° |
| 2026-05-04 03:39 | 36.19810 | -115.36540 | 10767 ft | 324 kts | 288° |
| 2026-05-04 03:40 | 36.20670 | -115.39184 | 11389 ft | 337 kts | 288° |
| 2026-05-04 03:40 | 36.21554 | -115.41893 | 12322 ft | 340 kts | 288° |
| 2026-05-04 03:40 | 36.22452 | -115.44618 | 13091 ft | 346 kts | 289° |
| 2026-05-04 03:40 | 36.23359 | -115.47339 | 13394 ft | 339 kts | 289° |
| 2026-05-04 03:41 | 36.24264 | -115.50025 | 13404 ft | 339 kts | 289° |
| 2026-05-04 03:41 | 36.25172 | -115.52729 | 13442 ft | 339 kts | 289° |
| 2026-05-04 03:41 | 36.26135 | -115.55363 | 13430 ft | 342 kts | 297° |
| 2026-05-04 03:41 | 36.27068 | -115.57071 | 13436 ft | 343 kts | 304° |
| 2026-05-04 03:42 | 36.27815 | -115.58288 | 13441 ft | 344 kts | 305° |
| 2026-05-04 03:42 | 36.29301 | -115.60617 | 13428 ft | 344 kts | 306° |
| 2026-05-04 03:42 | 36.30792 | -115.62936 | 13422 ft | 343 kts | 306° |
| 2026-05-04 03:42 | 36.32279 | -115.65265 | 13438 ft | 343 kts | 303° |
| 2026-05-04 03:43 | 36.33721 | -115.67603 | 13465 ft | 340 kts | 304° |
| 2026-05-04 03:43 | 36.35180 | -115.69932 | 13465 ft | 344 kts | 305° |
| 2026-05-04 03:43 | 36.36687 | -115.72275 | 13394 ft | 347 kts | 301° |
| 2026-05-04 03:43 | 36.38087 | -115.74695 | 13408 ft | 343 kts | 304° |
| 2026-05-04 03:44 | 36.39534 | -115.77047 | 13431 ft | 344 kts | 304° |
| 2026-05-04 03:44 | 36.41010 | -115.79412 | 13740 ft | 344 kts | 304° |
| 2026-05-04 03:44 | 36.42446 | -115.81699 | 13799 ft | 334 kts | 304° |
| 2026-05-04 03:44 | 36.43863 | -115.83974 | 13911 ft | 333 kts | 304° |
| 2026-05-04 03:45 | 36.45283 | -115.86279 | 13990 ft | 338 kts | 304° |
| 2026-05-04 03:45 | 36.46711 | -115.88606 | 13970 ft | 337 kts | 304° |
| 2026-05-04 03:45 | 36.48133 | -115.90924 | 13979 ft | 337 kts | 304° |
| 2026-05-04 03:45 | 36.49555 | -115.93242 | 13975 ft | 337 kts | 304° |
| 2026-05-04 03:46 | 36.50975 | -115.95561 | 13987 ft | 338 kts | 303° |
| 2026-05-04 03:46 | 36.52432 | -115.97925 | 14282 ft | 351 kts | 307° |
| 2026-05-04 03:46 | 36.54320 | -115.99776 | 15316 ft | 351 kts | 332° |
| 2026-05-04 03:46 | 36.56655 | -116.00665 | 15846 ft | 355 kts | 355° |
| 2026-05-04 03:47 | 36.59088 | -116.00302 | 15982 ft | 356 kts | 20° |
| 2026-05-04 03:47 | 36.61218 | -115.98799 | 15994 ft | 351 kts | 42° |
| 2026-05-04 03:47 | 36.62965 | -115.96727 | 15996 ft | 343 kts | 47° |
| 2026-05-04 03:47 | 36.64620 | -115.94613 | 15975 ft | 339 kts | 48° |
| 2026-05-04 03:48 | 36.66256 | -115.92494 | 16003 ft | 340 kts | 49° |
| 2026-05-04 03:48 | 36.67905 | -115.90365 | 16000 ft | 341 kts | 49° |
| 2026-05-04 03:48 | 36.69557 | -115.88247 | 15995 ft | 341 kts | 48° |
| 2026-05-04 03:48 | 36.71217 | -115.86134 | 15785 ft | 344 kts | 48° |
| 2026-05-04 03:49 | 36.72923 | -115.83969 | 15268 ft | 350 kts | 47° |
| 2026-05-04 03:49 | 36.74632 | -115.81808 | 14810 ft | 349 kts | 47° |
| 2026-05-04 03:49 | 36.76331 | -115.79662 | 14379 ft | 346 kts | 47° |
| 2026-05-04 03:49 | 36.78014 | -115.77534 | 13976 ft | 343 kts | 47° |
| 2026-05-04 03:50 | 36.79688 | -115.75418 | 13540 ft | 342 kts | 47° |
| 2026-05-04 03:50 | 36.81351 | -115.73313 | 13094 ft | 340 kts | 47° |
| 2026-05-04 03:50 | 36.83007 | -115.71217 | 12659 ft | 337 kts | 47° |
| 2026-05-04 03:50 | 36.84646 | -115.69142 | 12239 ft | 334 kts | 47° |
| 2026-05-04 03:51 | 36.86245 | -115.67114 | 11856 ft | 330 kts | 47° |
| 2026-05-04 03:51 | 36.87862 | -115.65092 | 11453 ft | 328 kts | 44° |
| 2026-05-04 03:51 | 36.89508 | -115.63142 | 11215 ft | 319 kts | 48° |
| 2026-05-04 03:51 | 36.91178 | -115.61360 | 10968 ft | 315 kts | 30° |
| 2026-05-04 03:52 | 36.93251 | -115.60722 | 10890 ft | 305 kts | 359° |
| 2026-05-04 03:52 | 36.95275 | -115.61266 | 10825 ft | 292 kts | 337° |
| 2026-05-04 03:52 | 36.97008 | -115.62470 | 10756 ft | 279 kts | 320° |
| 2026-05-04 03:52 | 36.98347 | -115.64123 | 10667 ft | 263 kts | 310° |
| 2026-05-04 03:53 | 36.99659 | -115.65638 | 10568 ft | 251 kts | 318° |
| 2026-05-04 03:53 | 37.01049 | -115.66893 | 10384 ft | 244 kts | 324° |
| 2026-05-04 03:53 | 37.02502 | -115.67977 | 10105 ft | 242 kts | 328° |
| 2026-05-04 03:53 | 37.03991 | -115.68930 | 9835 ft | 240 kts | 332° |
| 2026-05-04 03:54 | 37.05518 | -115.69811 | 9451 ft | 242 kts | 333° |
| 2026-05-04 03:54 | 37.07026 | -115.70634 | 9150 ft | 238 kts | 334° |
| 2026-05-04 03:54 | 37.08556 | -115.71451 | 8660 ft | 242 kts | 334° |
| 2026-05-04 03:54 | 37.10101 | -115.72266 | 8042 ft | 238 kts | 335° |
| 2026-05-04 03:55 | 37.11612 | -115.73064 | 7457 ft | 232 kts | 335° |
| 2026-05-04 03:55 | 37.13084 | -115.73823 | 6874 ft | 226 kts | 339° |
| 2026-05-04 03:55 | 37.14554 | -115.73886 | 6655 ft | 200 kts | 16° |
| 2026-05-04 03:55 | 37.15585 | -115.72926 | 6574 ft | 183 kts | 62° |
| 2026-05-04 03:56 | 37.15831 | -115.71426 | 6585 ft | 173 kts | 107° |
| 2026-05-04 03:56 | 37.15254 | -115.70228 | 6511 ft | 158 kts | 149° |
| 2026-05-04 03:56 | 37.14239 | -115.69947 | 6320 ft | 150 kts | 195° |
| 2026-05-04 03:56 | 37.13443 | -115.70717 | 6154 ft | 151 kts | 242° |
| 2026-05-04 03:57 | 37.13390 | -115.72028 | 5983 ft | 158 kts | 284° |
| 2026-05-04 03:57 | 37.13792 | -115.73318 | 5823 ft | 163 kts | 297° |
| 2026-05-04 03:57 | 37.14636 | -115.74297 | 5783 ft | 170 kts | 319° |
| 2026-05-04 03:57 | 37.15643 | -115.75103 | 5688 ft | 170 kts | 327° |
| 2026-05-04 03:58 | 37.17724 | -115.76238 | 5207 ft | 161 kts | 339° |
| 2026-05-04 03:58 | 37.18739 | -115.76689 | 5000 ft | 153 kts | 329° |
| 2026-05-04 03:58 | 37.19703 | -115.77310 | 4928 ft | 159 kts | 333° |
| 2026-05-04 03:59 | 37.20738 | -115.77845 | 4752 ft | 162 kts | 328° |
| 2026-05-04 03:59 | 37.21767 | -115.78402 | 4506 ft | 159 kts | 334° |
| 2026-05-04 03:59 | 37.22739 | -115.78928 | 4440 ft | 139 kts | 337° |
| 2026-05-04 03:59 | 37.23460 | -115.79301 | 4440 ft | 88 kts | 337° |
| 2026-05-04 04:00 | 37.23826 | -115.79495 | 4440 ft | 31 kts | 336° |
| 2026-05-04 04:00 | 37.23852 | -115.79671 | 4440 ft | 22 kts | 256° |
| 2026-05-04 04:00 | 37.23805 | -115.79853 | 4440 ft | 21 kts | 253° |
| 2026-05-04 04:00 | 37.23760 | -115.80029 | 4440 ft | 21 kts | 252° |
| 2026-05-04 04:01 | 37.23715 | -115.80199 | 4438 ft | 20 kts | 251° |
| 2026-05-04 04:01 | 37.23665 | -115.80396 | 4438 ft | 25 kts | 254° |
| 2026-05-04 04:01 | 37.23611 | -115.80610 | 4438 ft | 26 kts | 252° |
| 2026-05-04 04:01 | 37.23559 | -115.80814 | 4438 ft | 24 kts | 252° |
| 2026-05-04 04:02 | 37.23511 | -115.81004 | 4438 ft | 20 kts | 253° |
| 2026-05-04 04:02 | 37.23495 | -115.81069 | 4435 ft | 5 kts | 252° |
| 2026-05-04 04:02 | 37.23501 | -115.81112 | 4438 ft | 6 kts | 321° |
| 2026-05-04 04:02 | 37.23548 | -115.81120 | 4438 ft | 9 kts | 357° |
| 2026-05-04 04:03 | 37.23619 | -115.81126 | 4438 ft | 12 kts | 357° |
| 2026-05-04 04:03 | 37.23683 | -115.81168 | 4438 ft | 11 kts | 272° |
| 2026-05-04 04:03 | 37.23713 | -115.81235 | 4438 ft | 11 kts | 357° |
| 2026-05-04 04:03 | 37.23781 | -115.81237 | 4438 ft | 6 kts | 18° |
| 2026-05-04 04:04 | 37.23793 | -115.81193 | 4438 ft | 2 kts | 86° |
| 2026-05-04 04:04 | 37.23794 | -115.81186 | 4438 ft | 0 kts | 86° |